THA983 VVPQ-VTBS
Flight info
| Callsign | THA983 |
|---|---|
| Flight time | 0h 55m |
| Altitude | 34000 |
| Route | NUMDI1C NUMDI R334 RYN DCT TUMGA TUMGA1C |
| Aircraft | A320/M-SDE3FGHIRWY/LB1 |
Departure
| Time | 2026-04-18 08:11 |
|---|---|
| Airport | Phú Quốc International Airport (VVPQ) |
Arrival
| Time | 2026-04-18 09:07 |
|---|---|
| Airport | Suvarnabhumi Airport (VTBS) |
| Time | Latitude | Longitude | Altitude | Speed | Heading |
|---|---|---|---|---|---|
| 2026-04-18 07:45 | 10.16416 | 103.99844 | 61 ft | 0 kts | 186° |
| 2026-04-18 08:00 | 10.16439 | 103.99847 | 66 ft | 4 kts | 186° |
| 2026-04-18 08:00 | 10.16465 | 103.99850 | 66 ft | 3 kts | 186° |
| 2026-04-18 08:01 | 10.16490 | 103.99857 | 66 ft | 4 kts | 217° |
| 2026-04-18 08:01 | 10.16505 | 103.99877 | 64 ft | 4 kts | 258° |
| 2026-04-18 08:01 | 10.16506 | 103.99904 | 63 ft | 4 kts | 276° |
| 2026-04-18 08:01 | 10.16504 | 103.99923 | 59 ft | 0 kts | 276° |
| 2026-04-18 08:05 | 10.16504 | 103.99922 | 59 ft | 1 kts | 276° |
| 2026-04-18 08:06 | 10.16504 | 103.99916 | 66 ft | 2 kts | 276° |
| 2026-04-18 08:06 | 10.16506 | 103.99896 | 66 ft | 4 kts | 276° |
| 2026-04-18 08:06 | 10.16518 | 103.99860 | 66 ft | 7 kts | 307° |
| 2026-04-18 08:06 | 10.16568 | 103.99845 | 63 ft | 9 kts | 2° |
| 2026-04-18 08:07 | 10.16638 | 103.99851 | 62 ft | 11 kts | 6° |
| 2026-04-18 08:07 | 10.16717 | 103.99861 | 58 ft | 10 kts | 17° |
| 2026-04-18 08:07 | 10.16748 | 103.99927 | 63 ft | 12 kts | 92° |
| 2026-04-18 08:07 | 10.16740 | 104.00024 | 66 ft | 15 kts | 96° |
| 2026-04-18 08:08 | 10.16728 | 104.00140 | 59 ft | 18 kts | 96° |
| 2026-04-18 08:08 | 10.16714 | 104.00275 | 66 ft | 21 kts | 96° |
| 2026-04-18 08:08 | 10.16699 | 104.00431 | 61 ft | 23 kts | 95° |
| 2026-04-18 08:08 | 10.16684 | 104.00575 | 62 ft | 13 kts | 97° |
| 2026-04-18 08:09 | 10.16712 | 104.00646 | 61 ft | 10 kts | 21° |
| 2026-04-18 08:09 | 10.16736 | 104.00649 | 65 ft | 0 kts | 4° |
| 2026-04-18 08:09 | 10.16747 | 104.00650 | 65 ft | 3 kts | 5° |
| 2026-04-18 08:09 | 10.16778 | 104.00653 | 65 ft | 6 kts | 5° |
| 2026-04-18 08:10 | 10.16817 | 104.00656 | 62 ft | 5 kts | 4° |
| 2026-04-18 08:10 | 10.16845 | 104.00651 | 59 ft | 4 kts | 308° |
| 2026-04-18 08:10 | 10.16854 | 104.00623 | 63 ft | 1 kts | 279° |
| 2026-04-18 08:10 | 10.16860 | 104.00589 | 60 ft | 17 kts | 278° |
| 2026-04-18 08:11 | 10.16897 | 104.00201 | 66 ft | 91 kts | 276° |
| 2026-04-18 08:11 | 10.16979 | 103.99356 | 66 ft | 146 kts | 275° |
| 2026-04-18 08:11 | 10.17097 | 103.98249 | 466 ft | 157 kts | 274° |
| 2026-04-18 08:11 | 10.17209 | 103.97153 | 1156 ft | 157 kts | 272° |
| 2026-04-18 08:12 | 10.17314 | 103.96061 | 1672 ft | 159 kts | 272° |
| 2026-04-18 08:12 | 10.17386 | 103.95291 | 1805 ft | 172 kts | 274° |
| 2026-04-18 08:12 | 10.17508 | 103.93999 | 2006 ft | 195 kts | 274° |
| 2026-04-18 08:12 | 10.17648 | 103.92542 | 2207 ft | 220 kts | 274° |
| 2026-04-18 08:13 | 10.17806 | 103.90905 | 2522 ft | 246 kts | 275° |
| 2026-04-18 08:13 | 10.18093 | 103.89111 | 2960 ft | 267 kts | 291° |
| 2026-04-18 08:13 | 10.19196 | 103.87589 | 3684 ft | 275 kts | 324° |
| 2026-04-18 08:13 | 10.20924 | 103.86740 | 4531 ft | 279 kts | 340° |
| 2026-04-18 08:14 | 10.22750 | 103.86038 | 5406 ft | 282 kts | 341° |
| 2026-04-18 08:14 | 10.24601 | 103.85335 | 6249 ft | 286 kts | 341° |
| 2026-04-18 08:14 | 10.26479 | 103.84623 | 7056 ft | 290 kts | 341° |
| 2026-04-18 08:14 | 10.28385 | 103.83895 | 7744 ft | 296 kts | 341° |
| 2026-04-18 08:15 | 10.30310 | 103.83153 | 7966 ft | 296 kts | 341° |
| 2026-04-18 08:15 | 10.32236 | 103.82405 | 8006 ft | 296 kts | 341° |
| 2026-04-18 08:15 | 10.34155 | 103.81661 | 8002 ft | 296 kts | 341° |
| 2026-04-18 08:15 | 10.36078 | 103.80914 | 7995 ft | 295 kts | 340° |
| 2026-04-18 08:16 | 10.37996 | 103.80169 | 7996 ft | 295 kts | 341° |
| 2026-04-18 08:16 | 10.39915 | 103.79428 | 8000 ft | 295 kts | 341° |
| 2026-04-18 08:16 | 10.41834 | 103.78686 | 7994 ft | 295 kts | 340° |
| 2026-04-18 08:16 | 10.43749 | 103.77915 | 7991 ft | 296 kts | 335° |
| 2026-04-18 08:17 | 10.45471 | 103.76767 | 8104 ft | 301 kts | 319° |
| 2026-04-18 08:17 | 10.47002 | 103.75310 | 8926 ft | 302 kts | 318° |
| 2026-04-18 08:17 | 10.48551 | 103.73857 | 9721 ft | 305 kts | 319° |
| 2026-04-18 08:17 | 10.50147 | 103.72380 | 10172 ft | 320 kts | 319° |
| 2026-04-18 08:18 | 10.51859 | 103.70810 | 10332 ft | 343 kts | 319° |
| 2026-04-18 08:18 | 10.53684 | 103.69133 | 10542 ft | 362 kts | 319° |
| 2026-04-18 08:18 | 10.55567 | 103.67394 | 11077 ft | 369 kts | 319° |
| 2026-04-18 08:18 | 10.57468 | 103.65627 | 11712 ft | 372 kts | 319° |
| 2026-04-18 08:19 | 10.59455 | 103.63938 | 12393 ft | 373 kts | 327° |
| 2026-04-18 08:19 | 10.61658 | 103.62529 | 13023 ft | 376 kts | 329° |
| 2026-04-18 08:19 | 10.63870 | 103.61149 | 13620 ft | 379 kts | 329° |
| 2026-04-18 08:19 | 10.66131 | 103.59747 | 14211 ft | 383 kts | 329° |
| 2026-04-18 08:20 | 10.68413 | 103.58330 | 14788 ft | 386 kts | 329° |
| 2026-04-18 08:20 | 10.70710 | 103.56898 | 15358 ft | 389 kts | 329° |
| 2026-04-18 08:20 | 10.73060 | 103.55432 | 15919 ft | 393 kts | 329° |
| 2026-04-18 08:20 | 10.75369 | 103.53990 | 16476 ft | 396 kts | 329° |
| 2026-04-18 08:21 | 10.77727 | 103.52515 | 17029 ft | 400 kts | 329° |
| 2026-04-18 08:21 | 10.80113 | 103.51024 | 17593 ft | 403 kts | 328° |
| 2026-04-18 08:21 | 10.82509 | 103.49526 | 18140 ft | 407 kts | 328° |
| 2026-04-18 08:21 | 10.84930 | 103.48012 | 18678 ft | 410 kts | 328° |
| 2026-04-18 08:22 | 10.87367 | 103.46488 | 19215 ft | 413 kts | 328° |
| 2026-04-18 08:22 | 10.89822 | 103.44955 | 19756 ft | 416 kts | 328° |
| 2026-04-18 08:22 | 10.92296 | 103.43410 | 20284 ft | 418 kts | 328° |
| 2026-04-18 08:22 | 10.94781 | 103.41857 | 20805 ft | 420 kts | 328° |
| 2026-04-18 08:23 | 10.97278 | 103.40294 | 21313 ft | 422 kts | 328° |
| 2026-04-18 08:23 | 10.99783 | 103.38726 | 21788 ft | 424 kts | 328° |
| 2026-04-18 08:23 | 11.02302 | 103.37151 | 22222 ft | 426 kts | 327° |
| 2026-04-18 08:23 | 11.04831 | 103.35566 | 22641 ft | 428 kts | 327° |
| 2026-04-18 08:24 | 11.07372 | 103.33975 | 23045 ft | 430 kts | 327° |
| 2026-04-18 08:24 | 11.09926 | 103.32375 | 23429 ft | 432 kts | 327° |
| 2026-04-18 08:24 | 11.12494 | 103.30769 | 23807 ft | 434 kts | 327° |
| 2026-04-18 08:24 | 11.15074 | 103.29159 | 24168 ft | 436 kts | 327° |
| 2026-04-18 08:25 | 11.17660 | 103.27542 | 24522 ft | 437 kts | 327° |
| 2026-04-18 08:25 | 11.20258 | 103.25913 | 24840 ft | 440 kts | 327° |
| 2026-04-18 08:25 | 11.22870 | 103.24277 | 25170 ft | 442 kts | 327° |
| 2026-04-18 08:25 | 11.25527 | 103.22612 | 25486 ft | 444 kts | 327° |
| 2026-04-18 08:26 | 11.28126 | 103.20981 | 25784 ft | 446 kts | 327° |
| 2026-04-18 08:26 | 11.30775 | 103.19316 | 26084 ft | 448 kts | 327° |
| 2026-04-18 08:26 | 11.33432 | 103.17645 | 26373 ft | 450 kts | 327° |
| 2026-04-18 08:26 | 11.36102 | 103.15969 | 26671 ft | 451 kts | 327° |
| 2026-04-18 08:27 | 11.38780 | 103.14286 | 26953 ft | 453 kts | 327° |
| 2026-04-18 08:27 | 11.41470 | 103.12596 | 27246 ft | 455 kts | 327° |
| 2026-04-18 08:27 | 11.44171 | 103.10899 | 27520 ft | 457 kts | 327° |
| 2026-04-18 08:27 | 11.46885 | 103.09194 | 27787 ft | 459 kts | 327° |
| 2026-04-18 08:28 | 11.49608 | 103.07484 | 28050 ft | 461 kts | 326° |
| 2026-04-18 08:28 | 11.52347 | 103.05767 | 28318 ft | 463 kts | 327° |
| 2026-04-18 08:28 | 11.55094 | 103.04041 | 28578 ft | 465 kts | 326° |
| 2026-04-18 08:28 | 11.57845 | 103.02307 | 28885 ft | 465 kts | 326° |
| 2026-04-18 08:29 | 11.60549 | 103.00511 | 29260 ft | 462 kts | 321° |
| 2026-04-18 08:29 | 11.62955 | 102.98355 | 29635 ft | 459 kts | 312° |
| 2026-04-18 08:29 | 11.65091 | 102.95951 | 30018 ft | 457 kts | 310° |
| 2026-04-18 08:29 | 11.67218 | 102.93539 | 30437 ft | 456 kts | 310° |
| 2026-04-18 08:30 | 11.69342 | 102.91136 | 30883 ft | 456 kts | 310° |
| 2026-04-18 08:30 | 11.71458 | 102.88745 | 31362 ft | 454 kts | 310° |
| 2026-04-18 08:30 | 11.73570 | 102.86358 | 31801 ft | 452 kts | 310° |
| 2026-04-18 08:30 | 11.75675 | 102.83977 | 32244 ft | 451 kts | 310° |
| 2026-04-18 08:31 | 11.77770 | 102.81607 | 32658 ft | 449 kts | 310° |
| 2026-04-18 08:31 | 11.79864 | 102.79240 | 33027 ft | 448 kts | 310° |
| 2026-04-18 08:31 | 11.81949 | 102.76881 | 33421 ft | 447 kts | 310° |
| 2026-04-18 08:31 | 11.84033 | 102.74522 | 33753 ft | 447 kts | 310° |
| 2026-04-18 08:32 | 11.86113 | 102.72164 | 33849 ft | 448 kts | 310° |
| 2026-04-18 08:32 | 11.90300 | 102.67414 | 33860 ft | 451 kts | 310° |
| 2026-04-18 08:33 | 11.94498 | 102.62655 | 33860 ft | 451 kts | 310° |
| 2026-04-18 08:33 | 11.98702 | 102.57897 | 33860 ft | 451 kts | 310° |
| 2026-04-18 08:34 | 12.02898 | 102.53135 | 33860 ft | 450 kts | 310° |
| 2026-04-18 08:34 | 12.07085 | 102.48374 | 33868 ft | 451 kts | 310° |
| 2026-04-18 08:35 | 12.11273 | 102.43619 | 33867 ft | 450 kts | 310° |
| 2026-04-18 08:35 | 12.15463 | 102.38867 | 33864 ft | 450 kts | 310° |
| 2026-04-18 08:36 | 12.19653 | 102.34105 | 33853 ft | 450 kts | 310° |
| 2026-04-18 08:36 | 12.23831 | 102.29349 | 33848 ft | 450 kts | 310° |
| 2026-04-18 08:37 | 12.28011 | 102.24588 | 33848 ft | 450 kts | 310° |
| 2026-04-18 08:37 | 12.32168 | 102.19858 | 33851 ft | 450 kts | 310° |
| 2026-04-18 08:38 | 12.36342 | 102.15090 | 33848 ft | 450 kts | 310° |
| 2026-04-18 08:38 | 12.40522 | 102.10322 | 33850 ft | 450 kts | 310° |
| 2026-04-18 08:39 | 12.44704 | 102.05559 | 33848 ft | 450 kts | 310° |
| 2026-04-18 08:39 | 12.48892 | 102.00790 | 33849 ft | 450 kts | 310° |
| 2026-04-18 08:40 | 12.53069 | 101.96014 | 33848 ft | 450 kts | 310° |
| 2026-04-18 08:40 | 12.57245 | 101.91236 | 33852 ft | 450 kts | 310° |
| 2026-04-18 08:41 | 12.61421 | 101.86464 | 33852 ft | 450 kts | 310° |
| 2026-04-18 08:41 | 12.65597 | 101.81688 | 33851 ft | 450 kts | 310° |
| 2026-04-18 08:42 | 12.69776 | 101.76913 | 33850 ft | 450 kts | 310° |
| 2026-04-18 08:42 | 12.73946 | 101.72146 | 33847 ft | 449 kts | 310° |
| 2026-04-18 08:43 | 12.78186 | 101.67441 | 33846 ft | 451 kts | 315° |
| 2026-04-18 08:43 | 12.83048 | 101.63368 | 33760 ft | 452 kts | 319° |
| 2026-04-18 08:43 | 12.85491 | 101.61355 | 33071 ft | 453 kts | 319° |
| 2026-04-18 08:44 | 12.87962 | 101.59320 | 32069 ft | 457 kts | 319° |
| 2026-04-18 08:44 | 12.90445 | 101.57275 | 31086 ft | 459 kts | 319° |
| 2026-04-18 08:44 | 12.92933 | 101.55223 | 30140 ft | 460 kts | 319° |
| 2026-04-18 08:44 | 12.95436 | 101.53160 | 29029 ft | 463 kts | 319° |
| 2026-04-18 08:45 | 12.97960 | 101.51080 | 27840 ft | 467 kts | 319° |
| 2026-04-18 08:45 | 13.00499 | 101.48986 | 26829 ft | 468 kts | 320° |
| 2026-04-18 08:45 | 13.03017 | 101.46912 | 26153 ft | 460 kts | 320° |
| 2026-04-18 08:45 | 13.05484 | 101.44879 | 25581 ft | 451 kts | 320° |
| 2026-04-18 08:46 | 13.07917 | 101.42869 | 24808 ft | 447 kts | 320° |
| 2026-04-18 08:46 | 13.10332 | 101.40873 | 23893 ft | 446 kts | 320° |
| 2026-04-18 08:46 | 13.12752 | 101.38871 | 23089 ft | 444 kts | 320° |
| 2026-04-18 08:46 | 13.15138 | 101.36899 | 22353 ft | 439 kts | 320° |
| 2026-04-18 08:47 | 13.17503 | 101.34943 | 21639 ft | 434 kts | 320° |
| 2026-04-18 08:47 | 13.19843 | 101.33007 | 20897 ft | 430 kts | 320° |
| 2026-04-18 08:47 | 13.22162 | 101.31087 | 20180 ft | 427 kts | 320° |
| 2026-04-18 08:47 | 13.24467 | 101.29180 | 19491 ft | 423 kts | 320° |
| 2026-04-18 08:48 | 13.26746 | 101.27295 | 18855 ft | 419 kts | 320° |
| 2026-04-18 08:48 | 13.29008 | 101.25425 | 18223 ft | 416 kts | 320° |
| 2026-04-18 08:48 | 13.31227 | 101.23589 | 18028 ft | 402 kts | 320° |
| 2026-04-18 08:48 | 13.33298 | 101.21742 | 17893 ft | 386 kts | 313° |
| 2026-04-18 08:49 | 13.34907 | 101.19592 | 17583 ft | 376 kts | 300° |
| 2026-04-18 08:49 | 13.35975 | 101.17179 | 17323 ft | 370 kts | 287° |
| 2026-04-18 08:49 | 13.36576 | 101.14614 | 17089 ft | 369 kts | 281° |
| 2026-04-18 08:49 | 13.37108 | 101.12038 | 16842 ft | 369 kts | 282° |
| 2026-04-18 08:50 | 13.37643 | 101.09467 | 16484 ft | 367 kts | 282° |
| 2026-04-18 08:50 | 13.38178 | 101.06913 | 16108 ft | 365 kts | 282° |
| 2026-04-18 08:50 | 13.38713 | 101.04366 | 15725 ft | 364 kts | 282° |
| 2026-04-18 08:50 | 13.39247 | 101.01835 | 15349 ft | 362 kts | 282° |
| 2026-04-18 08:51 | 13.39780 | 100.99310 | 14969 ft | 361 kts | 282° |
| 2026-04-18 08:51 | 13.40312 | 100.96790 | 14599 ft | 360 kts | 282° |
| 2026-04-18 08:51 | 13.40841 | 100.94280 | 14234 ft | 359 kts | 282° |
| 2026-04-18 08:51 | 13.41593 | 100.91852 | 13869 ft | 357 kts | 295° |
| 2026-04-18 08:52 | 13.42872 | 100.89679 | 13506 ft | 356 kts | 309° |
| 2026-04-18 08:52 | 13.44611 | 100.87887 | 13130 ft | 353 kts | 323° |
| 2026-04-18 08:52 | 13.46649 | 100.86495 | 12761 ft | 351 kts | 329° |
| 2026-04-18 08:52 | 13.48711 | 100.85153 | 12394 ft | 349 kts | 329° |
| 2026-04-18 08:53 | 13.50726 | 100.83832 | 12235 ft | 337 kts | 328° |
| 2026-04-18 08:53 | 13.52675 | 100.82574 | 12129 ft | 324 kts | 333° |
| 2026-04-18 08:53 | 13.54736 | 100.81756 | 11914 ft | 315 kts | 349° |
| 2026-04-18 08:53 | 13.56879 | 100.81568 | 11719 ft | 307 kts | 5° |
| 2026-04-18 08:54 | 13.58272 | 100.81768 | 11559 ft | 304 kts | 15° |
| 2026-04-18 08:54 | 13.60309 | 100.82326 | 11282 ft | 303 kts | 17° |
| 2026-04-18 08:54 | 13.62341 | 100.82885 | 11000 ft | 302 kts | 16° |
| 2026-04-18 08:54 | 13.64372 | 100.83441 | 10611 ft | 303 kts | 16° |
| 2026-04-18 08:55 | 13.66405 | 100.83998 | 10207 ft | 302 kts | 16° |
| 2026-04-18 08:55 | 13.68455 | 100.84559 | 9584 ft | 304 kts | 16° |
| 2026-04-18 08:55 | 13.70484 | 100.85113 | 8976 ft | 300 kts | 15° |
| 2026-04-18 08:55 | 13.72494 | 100.85660 | 8351 ft | 298 kts | 15° |
| 2026-04-18 08:56 | 13.74489 | 100.86206 | 7730 ft | 295 kts | 15° |
| 2026-04-18 08:56 | 13.76464 | 100.86750 | 7077 ft | 293 kts | 15° |
| 2026-04-18 08:56 | 13.78420 | 100.87287 | 6467 ft | 289 kts | 15° |
| 2026-04-18 08:56 | 13.80293 | 100.87800 | 6320 ft | 268 kts | 15° |
| 2026-04-18 08:57 | 13.83769 | 100.88753 | 5492 ft | 253 kts | 15° |
| 2026-04-18 08:57 | 13.85460 | 100.89216 | 5048 ft | 249 kts | 15° |
| 2026-04-18 08:57 | 13.87126 | 100.89673 | 4869 ft | 248 kts | 15° |
| 2026-04-18 08:58 | 13.88796 | 100.90130 | 4501 ft | 250 kts | 15° |
| 2026-04-18 08:58 | 13.90490 | 100.90593 | 4057 ft | 254 kts | 15° |
| 2026-04-18 08:58 | 13.92200 | 100.91060 | 3707 ft | 254 kts | 15° |
| 2026-04-18 08:58 | 13.93891 | 100.91523 | 3503 ft | 248 kts | 15° |
| 2026-04-18 08:59 | 13.95564 | 100.91772 | 3349 ft | 239 kts | 355° |
| 2026-04-18 08:59 | 13.97111 | 100.91341 | 3212 ft | 226 kts | 330° |
| 2026-04-18 08:59 | 13.98303 | 100.90342 | 3098 ft | 221 kts | 306° |
| 2026-04-18 08:59 | 13.99032 | 100.88971 | 3000 ft | 218 kts | 285° |
| 2026-04-18 09:00 | 13.99258 | 100.87446 | 2988 ft | 216 kts | 265° |
| 2026-04-18 09:00 | 13.98978 | 100.85944 | 2993 ft | 213 kts | 246° |
| 2026-04-18 09:00 | 13.98236 | 100.84636 | 2992 ft | 212 kts | 227° |
| 2026-04-18 09:00 | 13.97143 | 100.83667 | 2983 ft | 210 kts | 209° |
| 2026-04-18 09:01 | 13.95774 | 100.83105 | 2987 ft | 210 kts | 193° |
| 2026-04-18 09:01 | 13.94359 | 100.82733 | 2991 ft | 210 kts | 193° |
| 2026-04-18 09:01 | 13.92956 | 100.82365 | 2992 ft | 211 kts | 194° |
| 2026-04-18 09:01 | 13.91518 | 100.81986 | 2984 ft | 210 kts | 194° |
| 2026-04-18 09:02 | 13.90101 | 100.81611 | 2988 ft | 210 kts | 194° |
| 2026-04-18 09:02 | 13.88707 | 100.81243 | 2991 ft | 209 kts | 194° |
| 2026-04-18 09:02 | 13.87328 | 100.80880 | 2999 ft | 200 kts | 194° |
| 2026-04-18 09:02 | 13.85992 | 100.80529 | 2987 ft | 197 kts | 194° |
| 2026-04-18 09:03 | 13.84672 | 100.80182 | 2978 ft | 195 kts | 194° |
| 2026-04-18 09:03 | 13.83364 | 100.79838 | 2829 ft | 193 kts | 194° |
| 2026-04-18 09:03 | 13.82072 | 100.79496 | 2640 ft | 188 kts | 194° |
| 2026-04-18 09:03 | 13.80827 | 100.79169 | 2361 ft | 179 kts | 194° |
| 2026-04-18 09:04 | 13.79660 | 100.78862 | 2126 ft | 163 kts | 194° |
| 2026-04-18 09:04 | 13.78624 | 100.78589 | 1922 ft | 149 kts | 195° |
| 2026-04-18 09:04 | 13.77644 | 100.78332 | 1727 ft | 143 kts | 195° |
| 2026-04-18 09:04 | 13.76692 | 100.78082 | 1538 ft | 139 kts | 194° |
| 2026-04-18 09:05 | 13.75754 | 100.77836 | 1365 ft | 139 kts | 196° |
| 2026-04-18 09:05 | 13.74823 | 100.77591 | 1176 ft | 138 kts | 195° |
| 2026-04-18 09:05 | 13.73897 | 100.77347 | 996 ft | 137 kts | 195° |
| 2026-04-18 09:05 | 13.72972 | 100.77103 | 812 ft | 137 kts | 195° |
| 2026-04-18 09:06 | 13.72049 | 100.76861 | 632 ft | 137 kts | 195° |
| 2026-04-18 09:06 | 13.71122 | 100.76617 | 449 ft | 137 kts | 195° |
| 2026-04-18 09:06 | 13.70196 | 100.76374 | 265 ft | 138 kts | 195° |
| 2026-04-18 09:06 | 13.69265 | 100.76130 | 82 ft | 138 kts | 195° |
| 2026-04-18 09:07 | 13.68373 | 100.75889 | 15 ft | 120 kts | 193° |
| 2026-04-18 09:07 | 13.67726 | 100.75724 | 11 ft | 71 kts | 194° |
| 2026-04-18 09:07 | 13.67401 | 100.75640 | 13 ft | 27 kts | 193° |
| 2026-04-18 09:07 | 13.67225 | 100.75564 | 13 ft | 29 kts | 213° |
| 2026-04-18 09:08 | 13.67120 | 100.75475 | 13 ft | 14 kts | 225° |
| 2026-04-18 09:08 | 13.67095 | 100.75407 | 13 ft | 12 kts | 288° |
| 2026-04-18 09:08 | 13.67174 | 100.75389 | 13 ft | 14 kts | 12° |
| 2026-04-18 09:08 | 13.67274 | 100.75419 | 13 ft | 16 kts | 13° |
| 2026-04-18 09:09 | 13.67396 | 100.75448 | 13 ft | 19 kts | 13° |
| 2026-04-18 09:09 | 13.67538 | 100.75484 | 13 ft | 23 kts | 14° |
| 2026-04-18 09:09 | 13.67701 | 100.75526 | 15 ft | 26 kts | 14° |
| 2026-04-18 09:09 | 13.67884 | 100.75575 | 13 ft | 29 kts | 14° |
| 2026-04-18 09:10 | 13.68076 | 100.75625 | 13 ft | 24 kts | 14° |
| 2026-04-18 09:10 | 13.68243 | 100.75670 | 13 ft | 26 kts | 14° |
| 2026-04-18 09:10 | 13.68429 | 100.75719 | 14 ft | 29 kts | 14° |
| 2026-04-18 09:10 | 13.68634 | 100.75771 | 14 ft | 32 kts | 14° |
| 2026-04-18 09:11 | 13.68855 | 100.75830 | 13 ft | 34 kts | 14° |
| 2026-04-18 09:11 | 13.69021 | 100.75873 | 15 ft | 14 kts | 14° |
| 2026-04-18 09:11 | 13.69095 | 100.75868 | 15 ft | 12 kts | 319° |
| 2026-04-18 09:11 | 13.69127 | 100.75778 | 13 ft | 15 kts | 284° |
| 2026-04-18 09:12 | 13.69149 | 100.75693 | 13 ft | 11 kts | 284° |
| 2026-04-18 09:12 | 13.69152 | 100.75636 | 13 ft | 7 kts | 236° |
| 2026-04-18 09:12 | 13.69110 | 100.75617 | 13 ft | 5 kts | 195° |
| 2026-04-18 09:12 | 13.69087 | 100.75611 | 13 ft | 2 kts | 194° |
| 2026-04-18 09:13 | 13.69078 | 100.75609 | 13 ft | 0 kts | 194° |